sensor_id;sensor_type;location;lat;lon;timestamp;P1;durP1;ratioP1;P2;durP2;ratioP2
67564;SDS011;54393;53.556;49.216;2023-08-21T00:00:37;1.80;;;1.70;;
67564;SDS011;54393;53.556;49.216;2023-08-21T00:03:03;1.67;;;1.58;;
67564;SDS011;54393;53.556;49.216;2023-08-21T00:05:30;2.20;;;2.05;;
67564;SDS011;54393;53.556;49.216;2023-08-21T00:07:56;2.10;;;1.90;;
67564;SDS011;54393;53.556;49.216;2023-08-21T00:10:23;2.40;;;2.20;;
67564;SDS011;54393;53.556;49.216;2023-08-21T00:12:49;2.90;;;2.00;;
67564;SDS011;54393;53.556;49.216;2023-08-21T00:15:16;2.42;;;2.03;;
67564;SDS011;54393;53.556;49.216;2023-08-21T00:17:42;3.45;;;1.92;;
67564;SDS011;54393;53.556;49.216;2023-08-21T00:20:09;2.42;;;2.22;;
67564;SDS011;54393;53.556;49.216;2023-08-21T00:22:36;2.47;;;2.28;;
67564;SDS011;54393;53.556;49.216;2023-08-21T00:25:03;2.33;;;2.20;;
67564;SDS011;54393;53.556;49.216;2023-08-21T00:27:29;2.50;;;2.30;;
67564;SDS011;54393;53.556;49.216;2023-08-21T00:29:57;1.95;;;1.85;;
67564;SDS011;54393;53.556;49.216;2023-08-21T00:32:23;2.12;;;1.98;;
67564;SDS011;54393;53.556;49.216;2023-08-21T00:34:50;2.20;;;2.10;;
67564;SDS011;54393;53.556;49.216;2023-08-21T00:37:16;2.60;;;2.40;;
67564;SDS011;54393;53.556;49.216;2023-08-21T00:39:43;2.12;;;2.03;;
67564;SDS011;54393;53.556;49.216;2023-08-21T00:42:09;2.45;;;2.20;;
67564;SDS011;54393;53.556;49.216;2023-08-21T00:44:35;2.10;;;2.00;;
67564;SDS011;54393;53.556;49.216;2023-08-21T00:47:02;2.55;;;2.35;;
67564;SDS011;54393;53.556;49.216;2023-08-21T00:49:29;2.37;;;2.15;;
67564;SDS011;54393;53.556;49.216;2023-08-21T00:51:55;2.37;;;2.28;;
67564;SDS011;54393;53.556;49.216;2023-08-21T00:54:22;2.80;;;2.45;;
67564;SDS011;54393;53.556;49.216;2023-08-21T00:56:48;2.62;;;2.20;;
67564;SDS011;54393;53.556;49.216;2023-08-21T00:59:17;2.40;;;2.30;;
67564;SDS011;54393;53.556;49.216;2023-08-21T01:01:45;2.45;;;2.25;;
67564;SDS011;54393;53.556;49.216;2023-08-21T01:04:11;2.35;;;2.25;;
67564;SDS011;54393;53.556;49.216;2023-08-21T01:06:38;2.45;;;2.33;;
67564;SDS011;54393;53.556;49.216;2023-08-21T01:09:08;6.25;;;2.28;;
67564;SDS011;54393;53.556;49.216;2023-08-21T01:11:51;2.53;;;2.40;;
67564;SDS011;54393;53.556;49.216;2023-08-21T01:17:11;2.47;;;2.28;;
67564;SDS011;54393;53.556;49.216;2023-08-21T01:19:40;3.72;;;2.55;;
67564;SDS011;54393;53.556;49.216;2023-08-21T01:22:08;2.67;;;2.17;;
67564;SDS011;54393;53.556;49.216;2023-08-21T01:24:35;2.70;;;2.30;;
67564;SDS011;54393;53.556;49.216;2023-08-21T01:27:01;2.47;;;2.25;;
67564;SDS011;54393;53.556;49.216;2023-08-21T01:29:28;2.47;;;2.25;;
67564;SDS011;54393;53.556;49.216;2023-08-21T01:34:35;2.78;;;2.58;;
67564;SDS011;54393;53.556;49.216;2023-08-21T01:37:03;2.83;;;2.55;;
67564;SDS011;54393;53.556;49.216;2023-08-21T01:39:31;2.50;;;2.30;;
67564;SDS011;54393;53.556;49.216;2023-08-21T01:41:58;2.47;;;2.22;;
67564;SDS011;54393;53.556;49.216;2023-08-21T01:44:24;2.67;;;2.47;;
67564;SDS011;54393;53.556;49.216;2023-08-21T01:46:52;2.42;;;2.33;;
67564;SDS011;54393;53.556;49.216;2023-08-21T01:49:19;2.75;;;2.55;;
67564;SDS011;54393;53.556;49.216;2023-08-21T01:51:46;2.72;;;2.53;;
67564;SDS011;54393;53.556;49.216;2023-08-21T01:54:12;2.97;;;2.78;;
67564;SDS011;54393;53.556;49.216;2023-08-21T01:56:39;2.50;;;2.30;;
67564;SDS011;54393;53.556;49.216;2023-08-21T01:59:05;2.50;;;2.37;;
67564;SDS011;54393;53.556;49.216;2023-08-21T02:01:32;3.08;;;2.70;;
67564;SDS011;54393;53.556;49.216;2023-08-21T02:03:59;2.80;;;2.50;;
67564;SDS011;54393;53.556;49.216;2023-08-21T02:06:25;2.40;;;2.30;;
67564;SDS011;54393;53.556;49.216;2023-08-21T02:08:52;2.92;;;2.72;;
67564;SDS011;54393;53.556;49.216;2023-08-21T02:11:18;2.80;;;2.60;;
67564;SDS011;54393;53.556;49.216;2023-08-21T02:13:45;2.40;;;2.20;;
67564;SDS011;54393;53.556;49.216;2023-08-21T02:16:11;2.70;;;2.50;;
67564;SDS011;54393;53.556;49.216;2023-08-21T02:18:38;3.20;;;2.90;;
67564;SDS011;54393;53.556;49.216;2023-08-21T02:21:04;2.65;;;2.55;;
67564;SDS011;54393;53.556;49.216;2023-08-21T02:23:30;3.12;;;2.92;;
67564;SDS011;54393;53.556;49.216;2023-08-21T02:25:58;2.75;;;2.55;;
67564;SDS011;54393;53.556;49.216;2023-08-21T02:28:24;2.92;;;2.70;;
67564;SDS011;54393;53.556;49.216;2023-08-21T02:30:51;2.97;;;2.78;;
67564;SDS011;54393;53.556;49.216;2023-08-21T02:33:17;2.85;;;2.65;;
67564;SDS011;54393;53.556;49.216;2023-08-21T02:35:43;2.90;;;2.65;;
67564;SDS011;54393;53.556;49.216;2023-08-21T02:38:10;2.87;;;2.67;;
67564;SDS011;54393;53.556;49.216;2023-08-21T02:40:36;3.65;;;2.83;;
67564;SDS011;54393;53.556;49.216;2023-08-21T02:43:03;2.85;;;2.65;;
67564;SDS011;54393;53.556;49.216;2023-08-21T02:45:30;3.33;;;3.03;;
67564;SDS011;54393;53.556;49.216;2023-08-21T02:47:56;3.22;;;3.00;;
67564;SDS011;54393;53.556;49.216;2023-08-21T02:50:22;2.65;;;2.50;;
67564;SDS011;54393;53.556;49.216;2023-08-21T02:52:49;3.25;;;3.00;;
67564;SDS011;54393;53.556;49.216;2023-08-21T02:55:15;3.03;;;2.83;;
67564;SDS011;54393;53.556;49.216;2023-08-21T02:57:42;2.80;;;2.60;;
67564;SDS011;54393;53.556;49.216;2023-08-21T03:00:09;2.87;;;2.67;;
67564;SDS011;54393;53.556;49.216;2023-08-21T03:02:37;3.05;;;2.85;;
67564;SDS011;54393;53.556;49.216;2023-08-21T03:05:08;3.10;;;2.80;;
67564;SDS011;54393;53.556;49.216;2023-08-21T03:07:35;3.33;;;3.12;;
67564;SDS011;54393;53.556;49.216;2023-08-21T03:10:01;3.62;;;3.33;;
67564;SDS011;54393;53.556;49.216;2023-08-21T03:12:28;3.20;;;2.92;;
67564;SDS011;54393;53.556;49.216;2023-08-21T03:14:55;5.62;;;2.72;;
67564;SDS011;54393;53.556;49.216;2023-08-21T03:17:21;3.87;;;2.80;;
67564;SDS011;54393;53.556;49.216;2023-08-21T03:19:47;3.12;;;2.92;;
67564;SDS011;54393;53.556;49.216;2023-08-21T03:22:14;3.22;;;3.03;;
67564;SDS011;54393;53.556;49.216;2023-08-21T03:24:40;2.95;;;2.83;;
67564;SDS011;54393;53.556;49.216;2023-08-21T03:27:07;3.20;;;3.00;;
67564;SDS011;54393;53.556;49.216;2023-08-21T03:29:33;3.08;;;2.87;;
67564;SDS011;54393;53.556;49.216;2023-08-21T03:32:00;3.50;;;3.20;;
67564;SDS011;54393;53.556;49.216;2023-08-21T03:34:26;3.30;;;3.00;;
67564;SDS011;54393;53.556;49.216;2023-08-21T03:36:52;3.12;;;2.92;;
67564;SDS011;54393;53.556;49.216;2023-08-21T03:39:19;3.50;;;3.20;;
67564;SDS011;54393;53.556;49.216;2023-08-21T03:41:45;5.45;;;3.33;;
67564;SDS011;54393;53.556;49.216;2023-08-21T03:44:12;2.92;;;2.60;;
67564;SDS011;54393;53.556;49.216;2023-08-21T03:46:38;2.92;;;2.72;;
67564;SDS011;54393;53.556;49.216;2023-08-21T03:49:05;2.92;;;2.72;;
67564;SDS011;54393;53.556;49.216;2023-08-21T03:51:31;4.15;;;3.08;;
67564;SDS011;54393;53.556;49.216;2023-08-21T03:53:58;3.58;;;3.28;;
67564;SDS011;54393;53.556;49.216;2023-08-21T03:56:25;3.10;;;2.90;;
67564;SDS011;54393;53.556;49.216;2023-08-21T03:58:51;3.78;;;2.97;;
67564;SDS011;54393;53.556;49.216;2023-08-21T04:01:18;3.22;;;3.00;;
67564;SDS011;54393;53.556;49.216;2023-08-21T04:03:44;3.45;;;3.15;;
67564;SDS011;54393;53.556;49.216;2023-08-21T04:06:11;3.03;;;2.83;;
67564;SDS011;54393;53.556;49.216;2023-08-21T04:08:37;4.05;;;3.00;;
67564;SDS011;54393;53.556;49.216;2023-08-21T04:11:04;3.28;;;3.08;;
67564;SDS011;54393;53.556;49.216;2023-08-21T04:13:31;3.30;;;3.00;;
67564;SDS011;54393;53.556;49.216;2023-08-21T04:15:57;3.35;;;3.05;;
67564;SDS011;54393;53.556;49.216;2023-08-21T04:18:24;3.62;;;2.95;;
67564;SDS011;54393;53.556;49.216;2023-08-21T04:20:50;3.30;;;3.10;;
67564;SDS011;54393;53.556;49.216;2023-08-21T04:23:17;3.67;;;3.37;;
67564;SDS011;54393;53.556;49.216;2023-08-21T04:25:43;4.72;;;3.60;;
67564;SDS011;54393;53.556;49.216;2023-08-21T04:28:10;3.90;;;3.60;;
67564;SDS011;54393;53.556;49.216;2023-08-21T04:30:36;3.78;;;3.40;;
67564;SDS011;54393;53.556;49.216;2023-08-21T04:33:05;3.22;;;3.03;;
67564;SDS011;54393;53.556;49.216;2023-08-21T04:35:35;3.15;;;2.85;;
67564;SDS011;54393;53.556;49.216;2023-08-21T04:38:03;3.08;;;2.87;;
67564;SDS011;54393;53.556;49.216;2023-08-21T04:40:29;3.25;;;2.95;;
67564;SDS011;54393;53.556;49.216;2023-08-21T04:42:56;3.75;;;3.42;;
67564;SDS011;54393;53.556;49.216;2023-08-21T04:45:22;3.30;;;3.05;;
67564;SDS011;54393;53.556;49.216;2023-08-21T04:47:48;4.80;;;3.20;;
67564;SDS011;54393;53.556;49.216;2023-08-21T04:50:15;3.35;;;3.12;;
67564;SDS011;54393;53.556;49.216;2023-08-21T04:52:41;3.70;;;3.40;;
67564;SDS011;54393;53.556;49.216;2023-08-21T04:55:08;3.60;;;3.10;;
67564;SDS011;54393;53.556;49.216;2023-08-21T04:57:34;3.53;;;3.33;;
67564;SDS011;54393;53.556;49.216;2023-08-21T05:00:01;3.72;;;3.42;;
67564;SDS011;54393;53.556;49.216;2023-08-21T05:02:29;3.25;;;3.05;;
67564;SDS011;54393;53.556;49.216;2023-08-21T05:04:55;3.35;;;3.05;;
67564;SDS011;54393;53.556;49.216;2023-08-21T05:07:22;3.87;;;3.58;;
67564;SDS011;54393;53.556;49.216;2023-08-21T05:09:49;3.50;;;3.20;;
67564;SDS011;54393;53.556;49.216;2023-08-21T05:12:15;3.53;;;3.33;;
67564;SDS011;54393;53.556;49.216;2023-08-21T05:14:42;3.65;;;3.33;;
67564;SDS011;54393;53.556;49.216;2023-08-21T05:17:08;3.58;;;3.37;;
67564;SDS011;54393;53.556;49.216;2023-08-21T05:19:35;5.70;;;3.20;;
67564;SDS011;54393;53.556;49.216;2023-08-21T05:22:01;4.50;;;3.42;;
67564;SDS011;54393;53.556;49.216;2023-08-21T05:24:28;3.90;;;3.50;;
67564;SDS011;54393;53.556;49.216;2023-08-21T05:26:54;6.47;;;3.65;;
67564;SDS011;54393;53.556;49.216;2023-08-21T05:29:21;3.95;;;3.65;;
67564;SDS011;54393;53.556;49.216;2023-08-21T05:31:49;4.10;;;3.70;;
67564;SDS011;54393;53.556;49.216;2023-08-21T05:34:16;5.95;;;3.70;;
67564;SDS011;54393;53.556;49.216;2023-08-21T05:36:42;6.78;;;4.37;;
67564;SDS011;54393;53.556;49.216;2023-08-21T05:39:09;7.62;;;4.35;;
67564;SDS011;54393;53.556;49.216;2023-08-21T05:41:35;4.97;;;3.72;;
67564;SDS011;54393;53.556;49.216;2023-08-21T05:44:02;4.57;;;3.55;;
67564;SDS011;54393;53.556;49.216;2023-08-21T05:46:29;5.87;;;4.18;;
67564;SDS011;54393;53.556;49.216;2023-08-21T05:48:55;5.87;;;4.57;;
67564;SDS011;54393;53.556;49.216;2023-08-21T05:51:22;4.45;;;4.03;;
67564;SDS011;54393;53.556;49.216;2023-08-21T05:53:48;5.82;;;4.32;;
67564;SDS011;54393;53.556;49.216;2023-08-21T05:56:15;5.68;;;3.80;;
67564;SDS011;54393;53.556;49.216;2023-08-21T05:58:41;4.72;;;4.25;;
67564;SDS011;54393;53.556;49.216;2023-08-21T06:01:08;4.93;;;4.20;;
67564;SDS011;54393;53.556;49.216;2023-08-21T06:03:34;4.32;;;3.97;;
67564;SDS011;54393;53.556;49.216;2023-08-21T06:06:00;4.97;;;4.47;;
67564;SDS011;54393;53.556;49.216;2023-08-21T06:08:27;5.45;;;4.72;;
67564;SDS011;54393;53.556;49.216;2023-08-21T06:10:53;5.78;;;4.22;;
67564;SDS011;54393;53.556;49.216;2023-08-21T06:13:21;5.18;;;4.68;;
67564;SDS011;54393;53.556;49.216;2023-08-21T06:15:47;5.25;;;4.75;;
67564;SDS011;54393;53.556;49.216;2023-08-21T06:18:14;4.85;;;4.45;;
67564;SDS011;54393;53.556;49.216;2023-08-21T06:20:43;6.20;;;4.75;;
67564;SDS011;54393;53.556;49.216;2023-08-21T06:23:10;5.30;;;4.80;;
67564;SDS011;54393;53.556;49.216;2023-08-21T06:25:37;6.75;;;5.55;;
67564;SDS011;54393;53.556;49.216;2023-08-21T06:28:04;6.35;;;4.68;;
67564;SDS011;54393;53.556;49.216;2023-08-21T06:30:30;6.90;;;4.90;;
67564;SDS011;54393;53.556;49.216;2023-08-21T06:32:57;6.35;;;5.15;;
67564;SDS011;54393;53.556;49.216;2023-08-21T06:35:23;6.55;;;4.53;;
67564;SDS011;54393;53.556;49.216;2023-08-21T06:37:49;6.43;;;4.80;;
67564;SDS011;54393;53.556;49.216;2023-08-21T06:40:16;9.35;;;4.95;;
67564;SDS011;54393;53.556;49.216;2023-08-21T06:42:42;6.25;;;4.95;;
67564;SDS011;54393;53.556;49.216;2023-08-21T06:45:09;8.15;;;5.28;;
67564;SDS011;54393;53.556;49.216;2023-08-21T06:47:35;5.57;;;4.90;;
67564;SDS011;54393;53.556;49.216;2023-08-21T06:50:02;5.80;;;4.43;;
67564;SDS011;54393;53.556;49.216;2023-08-21T06:52:29;9.07;;;5.05;;
67564;SDS011;54393;53.556;49.216;2023-08-21T06:54:55;5.37;;;4.87;;
67564;SDS011;54393;53.556;49.216;2023-08-21T06:57:22;6.68;;;5.25;;
67564;SDS011;54393;53.556;49.216;2023-08-21T06:59:49;4.93;;;4.43;;
67564;SDS011;54393;53.556;49.216;2023-08-21T07:02:15;6.35;;;5.75;;
67564;SDS011;54393;53.556;49.216;2023-08-21T07:04:42;5.95;;;5.25;;
67564;SDS011;54393;53.556;49.216;2023-08-21T07:07:08;5.47;;;4.97;;
67564;SDS011;54393;53.556;49.216;2023-08-21T07:09:35;6.40;;;5.00;;
67564;SDS011;54393;53.556;49.216;2023-08-21T07:12:01;7.57;;;5.15;;
67564;SDS011;54393;53.556;49.216;2023-08-21T07:14:28;5.68;;;5.20;;
67564;SDS011;54393;53.556;49.216;2023-08-21T07:16:54;6.10;;;5.28;;
67564;SDS011;54393;53.556;49.216;2023-08-21T07:19:21;6.80;;;4.75;;
67564;SDS011;54393;53.556;49.216;2023-08-21T07:21:47;5.55;;;5.03;;
67564;SDS011;54393;53.556;49.216;2023-08-21T07:24:14;6.28;;;5.05;;
67564;SDS011;54393;53.556;49.216;2023-08-21T07:26:40;5.30;;;4.62;;
67564;SDS011;54393;53.556;49.216;2023-08-21T07:29:06;6.85;;;5.50;;
67564;SDS011;54393;53.556;49.216;2023-08-21T07:31:33;6.03;;;4.95;;
67564;SDS011;54393;53.556;49.216;2023-08-21T07:34:00;5.80;;;5.22;;
67564;SDS011;54393;53.556;49.216;2023-08-21T07:36:26;6.93;;;5.22;;
67564;SDS011;54393;53.556;49.216;2023-08-21T07:38:53;5.55;;;4.82;;
67564;SDS011;54393;53.556;49.216;2023-08-21T07:41:19;5.85;;;5.00;;
67564;SDS011;54393;53.556;49.216;2023-08-21T07:43:46;6.87;;;5.05;;
67564;SDS011;54393;53.556;49.216;2023-08-21T07:46:12;7.35;;;5.40;;
67564;SDS011;54393;53.556;49.216;2023-08-21T07:48:44;6.43;;;5.35;;
67564;SDS011;54393;53.556;49.216;2023-08-21T07:51:11;5.68;;;5.18;;
67564;SDS011;54393;53.556;49.216;2023-08-21T07:53:38;6.12;;;4.93;;
67564;SDS011;54393;53.556;49.216;2023-08-21T07:56:05;6.30;;;5.55;;
67564;SDS011;54393;53.556;49.216;2023-08-21T07:58:32;5.50;;;5.00;;
67564;SDS011;54393;53.556;49.216;2023-08-21T08:00:58;6.07;;;5.47;;
67564;SDS011;54393;53.556;49.216;2023-08-21T08:03:26;5.60;;;5.00;;
67564;SDS011;54393;53.556;49.216;2023-08-21T08:05:53;6.85;;;5.30;;
67564;SDS011;54393;53.556;49.216;2023-08-21T08:08:19;5.55;;;5.03;;
67564;SDS011;54393;53.556;49.216;2023-08-21T08:10:46;5.78;;;5.28;;
67564;SDS011;54393;53.556;49.216;2023-08-21T08:13:12;6.57;;;5.70;;
67564;SDS011;54393;53.556;49.216;2023-08-21T08:15:39;5.65;;;5.00;;
67564;SDS011;54393;53.556;49.216;2023-08-21T08:18:10;5.95;;;5.32;;
67564;SDS011;54393;53.556;49.216;2023-08-21T08:20:40;6.10;;;5.53;;
67564;SDS011;54393;53.556;49.216;2023-08-21T08:23:06;6.10;;;5.40;;
67564;SDS011;54393;53.556;49.216;2023-08-21T08:25:33;6.82;;;5.45;;
67564;SDS011;54393;53.556;49.216;2023-08-21T08:27:59;6.15;;;5.00;;
67564;SDS011;54393;53.556;49.216;2023-08-21T08:30:26;6.75;;;5.18;;
67564;SDS011;54393;53.556;49.216;2023-08-21T08:32:52;5.95;;;5.12;;
67564;SDS011;54393;53.556;49.216;2023-08-21T08:35:19;7.25;;;5.05;;
67564;SDS011;54393;53.556;49.216;2023-08-21T08:37:45;7.37;;;5.43;;
67564;SDS011;54393;53.556;49.216;2023-08-21T08:40:12;6.65;;;5.07;;
67564;SDS011;54393;53.556;49.216;2023-08-21T08:42:38;5.75;;;5.20;;
67564;SDS011;54393;53.556;49.216;2023-08-21T08:45:05;6.15;;;4.95;;
67564;SDS011;54393;53.556;49.216;2023-08-21T08:47:32;5.95;;;4.93;;
67564;SDS011;54393;53.556;49.216;2023-08-21T08:50:03;6.68;;;5.05;;
67564;SDS011;54393;53.556;49.216;2023-08-21T08:52:31;5.50;;;4.87;;
67564;SDS011;54393;53.556;49.216;2023-08-21T08:55:01;5.90;;;4.78;;
67564;SDS011;54393;53.556;49.216;2023-08-21T08:57:28;6.30;;;5.05;;
67564;SDS011;54393;53.556;49.216;2023-08-21T08:59:55;5.65;;;4.75;;
67564;SDS011;54393;53.556;49.216;2023-08-21T09:02:22;7.28;;;5.03;;
67564;SDS011;54393;53.556;49.216;2023-08-21T09:04:50;8.30;;;5.12;;
67564;SDS011;54393;53.556;49.216;2023-08-21T09:07:17;5.22;;;4.43;;
67564;SDS011;54393;53.556;49.216;2023-08-21T09:09:48;5.45;;;4.87;;
67564;SDS011;54393;53.556;49.216;2023-08-21T09:12:16;7.57;;;4.80;;
67564;SDS011;54393;53.556;49.216;2023-08-21T09:14:44;5.28;;;4.62;;
67564;SDS011;54393;53.556;49.216;2023-08-21T09:17:11;4.97;;;4.57;;
67564;SDS011;54393;53.556;49.216;2023-08-21T09:19:38;5.55;;;4.47;;
67564;SDS011;54393;53.556;49.216;2023-08-21T09:22:08;6.12;;;4.47;;
67564;SDS011;54393;53.556;49.216;2023-08-21T09:27:32;5.03;;;4.62;;
67564;SDS011;54393;53.556;49.216;2023-08-21T09:30:00;5.00;;;4.60;;
67564;SDS011;54393;53.556;49.216;2023-08-21T09:32:29;5.53;;;4.10;;
67564;SDS011;54393;53.556;49.216;2023-08-21T09:34:56;5.43;;;4.50;;
67564;SDS011;54393;53.556;49.216;2023-08-21T09:37:27;4.68;;;4.22;;
67564;SDS011;54393;53.556;49.216;2023-08-21T09:39:56;4.00;;;3.70;;
67564;SDS011;54393;53.556;49.216;2023-08-21T09:42:30;5.75;;;4.22;;
67564;SDS011;54393;53.556;49.216;2023-08-21T09:44:56;5.95;;;4.53;;
67564;SDS011;54393;53.556;49.216;2023-08-21T09:47:23;4.28;;;3.53;;
67564;SDS011;54393;53.556;49.216;2023-08-21T09:49:52;4.43;;;3.95;;
67564;SDS011;54393;53.556;49.216;2023-08-21T09:52:19;4.50;;;4.05;;
67564;SDS011;54393;53.556;49.216;2023-08-21T09:54:45;4.10;;;3.70;;
67564;SDS011;54393;53.556;49.216;2023-08-21T09:57:12;4.87;;;3.90;;
67564;SDS011;54393;53.556;49.216;2023-08-21T09:59:39;5.05;;;3.97;;
67564;SDS011;54393;53.556;49.216;2023-08-21T10:02:07;4.30;;;3.87;;
67564;SDS011;54393;53.556;49.216;2023-08-21T10:04:35;4.32;;;3.47;;
67564;SDS011;54393;53.556;49.216;2023-08-21T10:07:02;4.35;;;3.78;;
67564;SDS011;54393;53.556;49.216;2023-08-21T10:09:31;3.97;;;3.58;;
67564;SDS011;54393;53.556;49.216;2023-08-21T10:11:58;5.82;;;3.92;;
67564;SDS011;54393;53.556;49.216;2023-08-21T10:14:25;4.62;;;4.22;;
67564;SDS011;54393;53.556;49.216;2023-08-21T10:16:52;4.30;;;3.90;;
67564;SDS011;54393;53.556;49.216;2023-08-21T10:19:19;4.37;;;3.87;;
67564;SDS011;54393;53.556;49.216;2023-08-21T10:21:48;4.35;;;3.33;;
67564;SDS011;54393;53.556;49.216;2023-08-21T10:24:27;4.43;;;4.03;;
67564;SDS011;54393;53.556;49.216;2023-08-21T10:27:02;4.82;;;4.43;;
67564;SDS011;54393;53.556;49.216;2023-08-21T10:29:28;4.03;;;3.72;;
67564;SDS011;54393;53.556;49.216;2023-08-21T10:32:03;5.37;;;3.65;;
67564;SDS011;54393;53.556;49.216;2023-08-21T10:34:35;6.70;;;4.12;;
67564;SDS011;54393;53.556;49.216;2023-08-21T10:37:12;4.12;;;3.83;;
67564;SDS011;54393;53.556;49.216;2023-08-21T10:39:39;4.57;;;4.12;;
67564;SDS011;54393;53.556;49.216;2023-08-21T10:42:18;4.85;;;3.35;;
67564;SDS011;54393;53.556;49.216;2023-08-21T10:49:48;4.10;;;3.80;;
67564;SDS011;54393;53.556;49.216;2023-08-21T10:54:52;4.12;;;3.83;;
67564;SDS011;54393;53.556;49.216;2023-08-21T10:57:23;3.90;;;3.60;;
67564;SDS011;54393;53.556;49.216;2023-08-21T10:59:50;4.45;;;3.80;;
67564;SDS011;54393;53.556;49.216;2023-08-21T11:02:19;3.70;;;3.40;;
67564;SDS011;54393;53.556;49.216;2023-08-21T11:04:46;5.50;;;4.15;;
67564;SDS011;54393;53.556;49.216;2023-08-21T11:07:13;4.07;;;3.65;;
67564;SDS011;54393;53.556;49.216;2023-08-21T11:09:40;5.32;;;3.83;;
67564;SDS011;54393;53.556;49.216;2023-08-21T11:12:07;4.37;;;3.97;;
67564;SDS011;54393;53.556;49.216;2023-08-21T11:14:34;4.20;;;3.80;;
67564;SDS011;54393;53.556;49.216;2023-08-21T11:17:02;3.80;;;3.50;;
67564;SDS011;54393;53.556;49.216;2023-08-21T11:19:32;3.70;;;3.30;;
67564;SDS011;54393;53.556;49.216;2023-08-21T11:21:59;4.35;;;3.95;;
67564;SDS011;54393;53.556;49.216;2023-08-21T11:24:30;4.37;;;3.97;;
67564;SDS011;54393;53.556;49.216;2023-08-21T11:27:16;4.40;;;4.00;;
67564;SDS011;54393;53.556;49.216;2023-08-21T11:29:47;4.22;;;3.83;;
67564;SDS011;54393;53.556;49.216;2023-08-21T11:32:15;4.50;;;4.10;;
67564;SDS011;54393;53.556;49.216;2023-08-21T11:34:52;4.30;;;3.90;;
67564;SDS011;54393;53.556;49.216;2023-08-21T11:37:21;4.20;;;3.90;;
67564;SDS011;54393;53.556;49.216;2023-08-21T11:39:48;4.12;;;3.83;;
67564;SDS011;54393;53.556;49.216;2023-08-21T11:42:17;4.47;;;4.18;;
67564;SDS011;54393;53.556;49.216;2023-08-21T11:44:49;4.18;;;3.90;;
67564;SDS011;54393;53.556;49.216;2023-08-21T11:47:17;4.60;;;3.95;;
67564;SDS011;54393;53.556;49.216;2023-08-21T11:49:45;4.57;;;4.20;;
67564;SDS011;54393;53.556;49.216;2023-08-21T11:52:22;5.65;;;5.10;;
67564;SDS011;54393;53.556;49.216;2023-08-21T11:54:53;4.35;;;4.05;;
67564;SDS011;54393;53.556;49.216;2023-08-21T11:57:20;4.10;;;3.80;;
67564;SDS011;54393;53.556;49.216;2023-08-21T11:59:50;4.97;;;4.32;;
67564;SDS011;54393;53.556;49.216;2023-08-21T12:02:19;4.35;;;3.90;;
67564;SDS011;54393;53.556;49.216;2023-08-21T12:04:52;4.62;;;3.97;;
67564;SDS011;54393;53.556;49.216;2023-08-21T12:07:19;4.47;;;4.10;;
67564;SDS011;54393;53.556;49.216;2023-08-21T12:09:46;3.70;;;3.50;;
67564;SDS011;54393;53.556;49.216;2023-08-21T12:12:14;4.15;;;3.85;;
67564;SDS011;54393;53.556;49.216;2023-08-21T12:14:41;4.25;;;3.95;;
67564;SDS011;54393;53.556;49.216;2023-08-21T12:17:07;4.18;;;3.87;;
67564;SDS011;54393;53.556;49.216;2023-08-21T12:19:34;3.97;;;3.65;;
67564;SDS011;54393;53.556;49.216;2023-08-21T12:22:01;3.87;;;3.67;;
67564;SDS011;54393;53.556;49.216;2023-08-21T12:24:28;3.97;;;3.60;;
67564;SDS011;54393;53.556;49.216;2023-08-21T12:26:55;3.85;;;3.60;;
67564;SDS011;54393;53.556;49.216;2023-08-21T12:29:22;3.90;;;3.60;;
67564;SDS011;54393;53.556;49.216;2023-08-21T12:31:48;4.05;;;3.50;;
67564;SDS011;54393;53.556;49.216;2023-08-21T12:34:15;4.07;;;3.67;;
67564;SDS011;54393;53.556;49.216;2023-08-21T12:36:42;3.70;;;3.50;;
67564;SDS011;54393;53.556;49.216;2023-08-21T12:39:08;3.83;;;3.60;;
67564;SDS011;54393;53.556;49.216;2023-08-21T12:41:35;4.37;;;3.97;;
67564;SDS011;54393;53.556;49.216;2023-08-21T12:44:01;4.00;;;3.75;;
67564;SDS011;54393;53.556;49.216;2023-08-21T12:46:28;4.03;;;3.75;;
67564;SDS011;54393;53.556;49.216;2023-08-21T12:48:55;3.62;;;3.35;;
67564;SDS011;54393;53.556;49.216;2023-08-21T12:51:22;3.90;;;3.60;;
67564;SDS011;54393;53.556;49.216;2023-08-21T12:53:48;3.45;;;3.25;;
67564;SDS011;54393;53.556;49.216;2023-08-21T12:56:16;3.85;;;3.50;;
67564;SDS011;54393;53.556;49.216;2023-08-21T12:58:43;4.22;;;3.83;;
67564;SDS011;54393;53.556;49.216;2023-08-21T13:01:10;3.83;;;3.53;;
67564;SDS011;54393;53.556;49.216;2023-08-21T13:03:37;3.85;;;3.53;;
67564;SDS011;54393;53.556;49.216;2023-08-21T13:06:04;4.30;;;4.00;;
67564;SDS011;54393;53.556;49.216;2023-08-21T13:08:30;3.42;;;3.12;;
67564;SDS011;54393;53.556;49.216;2023-08-21T13:10:57;3.42;;;3.22;;
67564;SDS011;54393;53.556;49.216;2023-08-21T13:13:23;3.47;;;3.28;;
67564;SDS011;54393;53.556;49.216;2023-08-21T13:15:50;3.58;;;3.37;;
67564;SDS011;54393;53.556;49.216;2023-08-21T13:18:19;3.90;;;3.60;;
67564;SDS011;54393;53.556;49.216;2023-08-21T13:20:45;3.58;;;3.28;;
67564;SDS011;54393;53.556;49.216;2023-08-21T13:23:11;3.30;;;3.10;;
67564;SDS011;54393;53.556;49.216;2023-08-21T13:25:38;3.50;;;3.20;;
67564;SDS011;54393;53.556;49.216;2023-08-21T13:28:04;3.33;;;3.12;;
67564;SDS011;54393;53.556;49.216;2023-08-21T13:30:31;3.35;;;3.15;;
67564;SDS011;54393;53.556;49.216;2023-08-21T13:32:58;3.15;;;2.95;;
67564;SDS011;54393;53.556;49.216;2023-08-21T13:35:24;2.95;;;2.72;;
67564;SDS011;54393;53.556;49.216;2023-08-21T13:37:51;3.33;;;3.12;;
67564;SDS011;54393;53.556;49.216;2023-08-21T13:40:17;3.37;;;3.08;;
67564;SDS011;54393;53.556;49.216;2023-08-21T13:42:44;3.50;;;3.30;;
67564;SDS011;54393;53.556;49.216;2023-08-21T13:45:12;3.08;;;2.87;;
67564;SDS011;54393;53.556;49.216;2023-08-21T13:47:46;3.20;;;3.00;;
67564;SDS011;54393;53.556;49.216;2023-08-21T13:50:14;3.12;;;2.90;;
67564;SDS011;54393;53.556;49.216;2023-08-21T13:52:41;3.10;;;2.90;;
67564;SDS011;54393;53.556;49.216;2023-08-21T13:55:09;2.78;;;2.58;;
67564;SDS011;54393;53.556;49.216;2023-08-21T13:57:37;2.95;;;2.75;;
67564;SDS011;54393;53.556;49.216;2023-08-21T14:00:04;2.58;;;2.47;;
67564;SDS011;54393;53.556;49.216;2023-08-21T14:02:37;3.15;;;2.90;;
67564;SDS011;54393;53.556;49.216;2023-08-21T14:05:04;2.87;;;2.67;;
67564;SDS011;54393;53.556;49.216;2023-08-21T14:07:32;2.33;;;2.22;;
67564;SDS011;54393;53.556;49.216;2023-08-21T14:09:59;2.60;;;2.50;;
67564;SDS011;54393;53.556;49.216;2023-08-21T14:12:28;2.45;;;2.35;;
67564;SDS011;54393;53.556;49.216;2023-08-21T14:14:56;2.20;;;2.10;;
67564;SDS011;54393;53.556;49.216;2023-08-21T14:17:25;2.90;;;2.70;;
67564;SDS011;54393;53.556;49.216;2023-08-21T14:19:52;2.47;;;2.28;;
67564;SDS011;54393;53.556;49.216;2023-08-21T14:22:19;2.80;;;2.60;;
67564;SDS011;54393;53.556;49.216;2023-08-21T14:24:45;2.12;;;2.03;;
67564;SDS011;54393;53.556;49.216;2023-08-21T14:27:12;2.00;;;1.90;;
67564;SDS011;54393;53.556;49.216;2023-08-21T14:29:38;2.28;;;2.12;;
67564;SDS011;54393;53.556;49.216;2023-08-21T14:32:05;2.08;;;1.98;;
67564;SDS011;54393;53.556;49.216;2023-08-21T14:34:31;2.30;;;1.85;;
67564;SDS011;54393;53.556;49.216;2023-08-21T14:36:58;2.30;;;2.20;;
67564;SDS011;54393;53.556;49.216;2023-08-21T14:39:24;2.20;;;2.10;;
67564;SDS011;54393;53.556;49.216;2023-08-21T14:41:54;2.12;;;2.00;;
67564;SDS011;54393;53.556;49.216;2023-08-21T14:44:21;2.00;;;1.90;;
67564;SDS011;54393;53.556;49.216;2023-08-21T14:46:48;2.95;;;2.10;;
67564;SDS011;54393;53.556;49.216;2023-08-21T14:49:14;1.95;;;1.85;;